sensor_id;sensor_type;location;lat;lon;timestamp;P1;durP1;ratioP1;P2;durP2;ratioP2
9420;SDS011;4749;51.398;5.466;2023-03-04T00:00:26;10.83;;;2.50;;
9420;SDS011;4749;51.398;5.466;2023-03-04T00:02:54;7.30;;;2.33;;
9420;SDS011;4749;51.398;5.466;2023-03-04T00:05:21;9.13;;;2.30;;
9420;SDS011;4749;51.398;5.466;2023-03-04T00:07:48;10.67;;;2.50;;
9420;SDS011;4749;51.398;5.466;2023-03-04T00:10:15;8.37;;;2.17;;
9420;SDS011;4749;51.398;5.466;2023-03-04T00:12:43;11.90;;;2.37;;
9420;SDS011;4749;51.398;5.466;2023-03-04T00:15:10;8.70;;;2.13;;
9420;SDS011;4749;51.398;5.466;2023-03-04T00:17:37;9.40;;;2.40;;
9420;SDS011;4749;51.398;5.466;2023-03-04T00:20:04;9.90;;;2.33;;
9420;SDS011;4749;51.398;5.466;2023-03-04T00:22:33;10.97;;;2.50;;
9420;SDS011;4749;51.398;5.466;2023-03-04T00:25:00;9.57;;;2.17;;
9420;SDS011;4749;51.398;5.466;2023-03-04T00:27:27;9.47;;;2.27;;
9420;SDS011;4749;51.398;5.466;2023-03-04T00:29:54;11.67;;;2.30;;
9420;SDS011;4749;51.398;5.466;2023-03-04T00:32:22;9.47;;;2.23;;
9420;SDS011;4749;51.398;5.466;2023-03-04T00:34:49;7.77;;;2.20;;
9420;SDS011;4749;51.398;5.466;2023-03-04T00:37:17;11.47;;;2.07;;
9420;SDS011;4749;51.398;5.466;2023-03-04T00:39:44;8.43;;;2.13;;
9420;SDS011;4749;51.398;5.466;2023-03-04T00:42:11;7.83;;;2.47;;
9420;SDS011;4749;51.398;5.466;2023-03-04T00:44:38;11.93;;;2.77;;
9420;SDS011;4749;51.398;5.466;2023-03-04T00:47:05;15.50;;;2.73;;
9420;SDS011;4749;51.398;5.466;2023-03-04T00:49:33;11.73;;;2.43;;
9420;SDS011;4749;51.398;5.466;2023-03-04T00:52:00;11.13;;;2.63;;
9420;SDS011;4749;51.398;5.466;2023-03-04T00:54:27;11.13;;;2.90;;
9420;SDS011;4749;51.398;5.466;2023-03-04T00:56:54;10.67;;;2.43;;
9420;SDS011;4749;51.398;5.466;2023-03-04T00:59:21;12.00;;;2.50;;
9420;SDS011;4749;51.398;5.466;2023-03-04T01:01:49;11.10;;;2.57;;
9420;SDS011;4749;51.398;5.466;2023-03-04T01:04:16;8.60;;;2.33;;
9420;SDS011;4749;51.398;5.466;2023-03-04T01:06:43;10.03;;;2.27;;
9420;SDS011;4749;51.398;5.466;2023-03-04T01:09:10;9.17;;;2.30;;
9420;SDS011;4749;51.398;5.466;2023-03-04T01:11:38;12.53;;;2.60;;
9420;SDS011;4749;51.398;5.466;2023-03-04T01:14:05;12.37;;;2.90;;
9420;SDS011;4749;51.398;5.466;2023-03-04T01:16:32;11.43;;;2.97;;
9420;SDS011;4749;51.398;5.466;2023-03-04T01:19:00;6.77;;;2.33;;
9420;SDS011;4749;51.398;5.466;2023-03-04T01:21:27;9.87;;;3.07;;
9420;SDS011;4749;51.398;5.466;2023-03-04T01:23:54;8.07;;;2.30;;
9420;SDS011;4749;51.398;5.466;2023-03-04T01:26:21;14.50;;;2.80;;
9420;SDS011;4749;51.398;5.466;2023-03-04T01:28:48;10.17;;;2.53;;
9420;SDS011;4749;51.398;5.466;2023-03-04T01:31:15;11.13;;;2.93;;
9420;SDS011;4749;51.398;5.466;2023-03-04T01:33:43;9.30;;;3.03;;
9420;SDS011;4749;51.398;5.466;2023-03-04T01:36:10;14.43;;;2.60;;
9420;SDS011;4749;51.398;5.466;2023-03-04T01:38:37;11.33;;;2.63;;
9420;SDS011;4749;51.398;5.466;2023-03-04T01:41:04;12.50;;;2.80;;
9420;SDS011;4749;51.398;5.466;2023-03-04T01:43:32;11.80;;;2.70;;
9420;SDS011;4749;51.398;5.466;2023-03-04T01:46:02;11.43;;;2.73;;
9420;SDS011;4749;51.398;5.466;2023-03-04T01:48:36;10.00;;;2.43;;
9420;SDS011;4749;51.398;5.466;2023-03-04T01:51:04;12.00;;;2.83;;
9420;SDS011;4749;51.398;5.466;2023-03-04T01:53:43;7.13;;;2.27;;
9420;SDS011;4749;51.398;5.466;2023-03-04T01:56:21;8.40;;;2.40;;
9420;SDS011;4749;51.398;5.466;2023-03-04T02:01:42;10.10;;;2.63;;
9420;SDS011;4749;51.398;5.466;2023-03-04T02:04:17;9.63;;;2.50;;
9420;SDS011;4749;51.398;5.466;2023-03-04T02:06:48;11.97;;;2.43;;
9420;SDS011;4749;51.398;5.466;2023-03-04T02:09:16;5.63;;;1.80;;
9420;SDS011;4749;51.398;5.466;2023-03-04T02:11:45;9.37;;;2.13;;
9420;SDS011;4749;51.398;5.466;2023-03-04T02:14:14;9.90;;;2.63;;
9420;SDS011;4749;51.398;5.466;2023-03-04T02:16:43;10.83;;;2.17;;
9420;SDS011;4749;51.398;5.466;2023-03-04T02:19:15;8.40;;;2.20;;
9420;SDS011;4749;51.398;5.466;2023-03-04T02:21:56;9.03;;;2.70;;
9420;SDS011;4749;51.398;5.466;2023-03-04T02:24:32;12.53;;;2.27;;
9420;SDS011;4749;51.398;5.466;2023-03-04T02:27:08;7.23;;;1.97;;
9420;SDS011;4749;51.398;5.466;2023-03-04T02:29:36;11.23;;;2.20;;
9420;SDS011;4749;51.398;5.466;2023-03-04T02:32:03;8.60;;;2.20;;
9420;SDS011;4749;51.398;5.466;2023-03-04T02:34:34;10.57;;;2.47;;
9420;SDS011;4749;51.398;5.466;2023-03-04T02:37:02;9.57;;;2.20;;
9420;SDS011;4749;51.398;5.466;2023-03-04T02:39:31;10.70;;;2.17;;
9420;SDS011;4749;51.398;5.466;2023-03-04T02:42:11;9.40;;;1.77;;
9420;SDS011;4749;51.398;5.466;2023-03-04T02:44:40;8.93;;;2.27;;
9420;SDS011;4749;51.398;5.466;2023-03-04T02:47:14;8.67;;;1.93;;
9420;SDS011;4749;51.398;5.466;2023-03-04T02:49:44;8.30;;;1.83;;
9420;SDS011;4749;51.398;5.466;2023-03-04T02:52:22;10.70;;;1.90;;
9420;SDS011;4749;51.398;5.466;2023-03-04T02:54:52;7.77;;;1.70;;
9420;SDS011;4749;51.398;5.466;2023-03-04T02:57:19;11.43;;;2.07;;
9420;SDS011;4749;51.398;5.466;2023-03-04T02:59:46;8.33;;;2.17;;
9420;SDS011;4749;51.398;5.466;2023-03-04T03:02:13;9.43;;;2.03;;
9420;SDS011;4749;51.398;5.466;2023-03-04T03:04:40;9.73;;;1.80;;
9420;SDS011;4749;51.398;5.466;2023-03-04T03:07:08;9.40;;;1.93;;
9420;SDS011;4749;51.398;5.466;2023-03-04T03:09:35;11.47;;;3.20;;
9420;SDS011;4749;51.398;5.466;2023-03-04T03:12:02;10.37;;;2.23;;
9420;SDS011;4749;51.398;5.466;2023-03-04T03:14:30;8.13;;;1.90;;
9420;SDS011;4749;51.398;5.466;2023-03-04T03:16:57;6.80;;;1.67;;
9420;SDS011;4749;51.398;5.466;2023-03-04T03:19:25;8.97;;;1.70;;
9420;SDS011;4749;51.398;5.466;2023-03-04T03:21:52;8.10;;;2.17;;
9420;SDS011;4749;51.398;5.466;2023-03-04T03:24:19;9.30;;;1.70;;
9420;SDS011;4749;51.398;5.466;2023-03-04T03:26:46;12.00;;;1.50;;
9420;SDS011;4749;51.398;5.466;2023-03-04T03:29:14;6.70;;;1.53;;
9420;SDS011;4749;51.398;5.466;2023-03-04T03:31:41;8.97;;;1.73;;
9420;SDS011;4749;51.398;5.466;2023-03-04T03:34:08;5.03;;;1.30;;
9420;SDS011;4749;51.398;5.466;2023-03-04T03:36:36;9.67;;;1.77;;
9420;SDS011;4749;51.398;5.466;2023-03-04T03:39:03;10.43;;;1.93;;
9420;SDS011;4749;51.398;5.466;2023-03-04T03:41:31;10.77;;;2.30;;
9420;SDS011;4749;51.398;5.466;2023-03-04T03:43:58;9.67;;;2.33;;
9420;SDS011;4749;51.398;5.466;2023-03-04T03:46:25;9.23;;;1.97;;
9420;SDS011;4749;51.398;5.466;2023-03-04T03:48:53;12.23;;;1.90;;
9420;SDS011;4749;51.398;5.466;2023-03-04T03:51:20;8.83;;;2.57;;
9420;SDS011;4749;51.398;5.466;2023-03-04T03:53:47;7.33;;;1.93;;
9420;SDS011;4749;51.398;5.466;2023-03-04T03:56:14;8.43;;;1.87;;
9420;SDS011;4749;51.398;5.466;2023-03-04T03:58:42;7.00;;;1.40;;
9420;SDS011;4749;51.398;5.466;2023-03-04T04:01:09;6.33;;;1.23;;
9420;SDS011;4749;51.398;5.466;2023-03-04T04:03:36;8.73;;;2.10;;
9420;SDS011;4749;51.398;5.466;2023-03-04T04:06:03;7.37;;;1.80;;
9420;SDS011;4749;51.398;5.466;2023-03-04T04:08:30;8.20;;;1.80;;
9420;SDS011;4749;51.398;5.466;2023-03-04T04:10:58;8.30;;;1.93;;
9420;SDS011;4749;51.398;5.466;2023-03-04T04:13:26;9.60;;;2.00;;
9420;SDS011;4749;51.398;5.466;2023-03-04T04:15:53;9.80;;;1.53;;
9420;SDS011;4749;51.398;5.466;2023-03-04T04:18:20;7.60;;;2.00;;
9420;SDS011;4749;51.398;5.466;2023-03-04T04:20:50;8.60;;;1.87;;
9420;SDS011;4749;51.398;5.466;2023-03-04T04:23:18;9.53;;;1.90;;
9420;SDS011;4749;51.398;5.466;2023-03-04T04:25:45;8.80;;;2.17;;
9420;SDS011;4749;51.398;5.466;2023-03-04T04:28:13;10.47;;;1.60;;
9420;SDS011;4749;51.398;5.466;2023-03-04T04:30:40;8.00;;;1.93;;
9420;SDS011;4749;51.398;5.466;2023-03-04T04:33:08;8.60;;;1.93;;
9420;SDS011;4749;51.398;5.466;2023-03-04T04:35:36;6.57;;;1.90;;
9420;SDS011;4749;51.398;5.466;2023-03-04T04:38:05;8.70;;;1.77;;
9420;SDS011;4749;51.398;5.466;2023-03-04T04:40:33;9.47;;;1.47;;
9420;SDS011;4749;51.398;5.466;2023-03-04T04:43:00;5.97;;;1.80;;
9420;SDS011;4749;51.398;5.466;2023-03-04T04:45:28;7.00;;;1.53;;
9420;SDS011;4749;51.398;5.466;2023-03-04T04:47:56;7.67;;;2.00;;
9420;SDS011;4749;51.398;5.466;2023-03-04T04:50:23;8.47;;;2.00;;
9420;SDS011;4749;51.398;5.466;2023-03-04T04:52:51;5.93;;;1.80;;
9420;SDS011;4749;51.398;5.466;2023-03-04T04:55:18;5.10;;;1.30;;
9420;SDS011;4749;51.398;5.466;2023-03-04T04:57:46;9.07;;;1.80;;
9420;SDS011;4749;51.398;5.466;2023-03-04T05:00:13;6.53;;;1.60;;
9420;SDS011;4749;51.398;5.466;2023-03-04T05:02:41;6.77;;;1.97;;
9420;SDS011;4749;51.398;5.466;2023-03-04T05:05:08;10.87;;;2.03;;
9420;SDS011;4749;51.398;5.466;2023-03-04T05:07:36;3.77;;;1.30;;
9420;SDS011;4749;51.398;5.466;2023-03-04T05:10:03;9.00;;;1.70;;
9420;SDS011;4749;51.398;5.466;2023-03-04T05:12:30;8.77;;;1.30;;
9420;SDS011;4749;51.398;5.466;2023-03-04T05:14:57;9.67;;;1.60;;
9420;SDS011;4749;51.398;5.466;2023-03-04T05:17:25;4.07;;;1.50;;
9420;SDS011;4749;51.398;5.466;2023-03-04T05:19:53;11.67;;;1.83;;
9420;SDS011;4749;51.398;5.466;2023-03-04T05:22:20;8.67;;;1.80;;
9420;SDS011;4749;51.398;5.466;2023-03-04T05:24:48;8.20;;;2.13;;
9420;SDS011;4749;51.398;5.466;2023-03-04T05:27:15;4.93;;;1.50;;
9420;SDS011;4749;51.398;5.466;2023-03-04T05:29:42;6.50;;;1.47;;
9420;SDS011;4749;51.398;5.466;2023-03-04T05:32:12;8.37;;;1.90;;
9420;SDS011;4749;51.398;5.466;2023-03-04T05:34:39;7.87;;;1.70;;
9420;SDS011;4749;51.398;5.466;2023-03-04T05:37:06;7.77;;;2.07;;
9420;SDS011;4749;51.398;5.466;2023-03-04T05:39:34;10.93;;;2.33;;
9420;SDS011;4749;51.398;5.466;2023-03-04T05:42:01;7.77;;;2.20;;
9420;SDS011;4749;51.398;5.466;2023-03-04T05:44:28;7.93;;;1.60;;
9420;SDS011;4749;51.398;5.466;2023-03-04T05:46:55;9.00;;;1.77;;
9420;SDS011;4749;51.398;5.466;2023-03-04T05:49:22;3.53;;;1.47;;
9420;SDS011;4749;51.398;5.466;2023-03-04T05:51:50;8.17;;;1.60;;
9420;SDS011;4749;51.398;5.466;2023-03-04T05:54:17;9.10;;;1.60;;
9420;SDS011;4749;51.398;5.466;2023-03-04T05:56:45;6.93;;;1.63;;
9420;SDS011;4749;51.398;5.466;2023-03-04T05:59:12;9.10;;;1.70;;
9420;SDS011;4749;51.398;5.466;2023-03-04T06:01:39;12.00;;;2.40;;
9420;SDS011;4749;51.398;5.466;2023-03-04T06:04:06;11.13;;;2.27;;
9420;SDS011;4749;51.398;5.466;2023-03-04T06:06:34;10.83;;;2.00;;
9420;SDS011;4749;51.398;5.466;2023-03-04T06:09:01;7.03;;;2.17;;
9420;SDS011;4749;51.398;5.466;2023-03-04T06:11:28;6.90;;;1.80;;
9420;SDS011;4749;51.398;5.466;2023-03-04T06:13:56;7.80;;;1.60;;
9420;SDS011;4749;51.398;5.466;2023-03-04T06:16:23;5.23;;;1.73;;
9420;SDS011;4749;51.398;5.466;2023-03-04T06:18:51;8.07;;;1.83;;
9420;SDS011;4749;51.398;5.466;2023-03-04T06:21:18;8.70;;;2.10;;
9420;SDS011;4749;51.398;5.466;2023-03-04T06:23:46;4.50;;;1.10;;
9420;SDS011;4749;51.398;5.466;2023-03-04T06:26:13;7.27;;;1.47;;
9420;SDS011;4749;51.398;5.466;2023-03-04T06:28:41;6.67;;;1.50;;
9420;SDS011;4749;51.398;5.466;2023-03-04T06:31:10;7.10;;;1.70;;
9420;SDS011;4749;51.398;5.466;2023-03-04T06:33:37;7.53;;;1.60;;
9420;SDS011;4749;51.398;5.466;2023-03-04T06:36:04;8.67;;;1.53;;
9420;SDS011;4749;51.398;5.466;2023-03-04T06:38:32;9.53;;;2.10;;
9420;SDS011;4749;51.398;5.466;2023-03-04T06:41:06;8.73;;;1.60;;
9420;SDS011;4749;51.398;5.466;2023-03-04T06:43:36;6.20;;;1.63;;
9420;SDS011;4749;51.398;5.466;2023-03-04T06:46:04;3.90;;;1.60;;
9420;SDS011;4749;51.398;5.466;2023-03-04T06:48:33;8.30;;;1.37;;
9420;SDS011;4749;51.398;5.466;2023-03-04T06:51:07;7.57;;;1.83;;
9420;SDS011;4749;51.398;5.466;2023-03-04T06:53:37;5.20;;;1.60;;
9420;SDS011;4749;51.398;5.466;2023-03-04T06:56:06;9.23;;;1.60;;
9420;SDS011;4749;51.398;5.466;2023-03-04T06:58:36;9.10;;;1.60;;
9420;SDS011;4749;51.398;5.466;2023-03-04T07:01:10;6.97;;;2.13;;
9420;SDS011;4749;51.398;5.466;2023-03-04T07:03:49;6.70;;;1.53;;
9420;SDS011;4749;51.398;5.466;2023-03-04T07:06:20;4.50;;;1.47;;
9420;SDS011;4749;51.398;5.466;2023-03-04T07:08:50;4.23;;;1.50;;
9420;SDS011;4749;51.398;5.466;2023-03-04T07:11:18;3.57;;;1.33;;
9420;SDS011;4749;51.398;5.466;2023-03-04T07:13:47;7.30;;;1.60;;
9420;SDS011;4749;51.398;5.466;2023-03-04T07:16:16;5.00;;;1.20;;
9420;SDS011;4749;51.398;5.466;2023-03-04T07:18:46;6.27;;;1.40;;
9420;SDS011;4749;51.398;5.466;2023-03-04T07:21:14;5.40;;;1.60;;
9420;SDS011;4749;51.398;5.466;2023-03-04T07:23:42;8.40;;;2.33;;
9420;SDS011;4749;51.398;5.466;2023-03-04T07:26:10;8.90;;;1.90;;
9420;SDS011;4749;51.398;5.466;2023-03-04T07:28:37;7.27;;;1.40;;
9420;SDS011;4749;51.398;5.466;2023-03-04T07:31:19;8.20;;;1.90;;
9420;SDS011;4749;51.398;5.466;2023-03-04T07:34:02;3.83;;;2.00;;
9420;SDS011;4749;51.398;5.466;2023-03-04T07:36:34;9.27;;;1.63;;
9420;SDS011;4749;51.398;5.466;2023-03-04T07:39:02;2.77;;;1.23;;
9420;SDS011;4749;51.398;5.466;2023-03-04T07:41:31;9.63;;;1.50;;
9420;SDS011;4749;51.398;5.466;2023-03-04T07:44:02;6.63;;;1.20;;
9420;SDS011;4749;51.398;5.466;2023-03-04T07:46:31;5.00;;;1.53;;
9420;SDS011;4749;51.398;5.466;2023-03-04T07:48:59;5.60;;;1.20;;
9420;SDS011;4749;51.398;5.466;2023-03-04T07:51:26;7.73;;;1.87;;
9420;SDS011;4749;51.398;5.466;2023-03-04T07:53:55;5.67;;;1.50;;
9420;SDS011;4749;51.398;5.466;2023-03-04T07:56:27;6.43;;;1.43;;
9420;SDS011;4749;51.398;5.466;2023-03-04T07:58:57;5.00;;;1.40;;
9420;SDS011;4749;51.398;5.466;2023-03-04T08:01:27;4.87;;;1.30;;
9420;SDS011;4749;51.398;5.466;2023-03-04T08:04:03;6.20;;;1.83;;
9420;SDS011;4749;51.398;5.466;2023-03-04T08:06:32;3.93;;;1.50;;
9420;SDS011;4749;51.398;5.466;2023-03-04T08:09:01;5.83;;;1.50;;
9420;SDS011;4749;51.398;5.466;2023-03-04T08:11:32;7.17;;;1.50;;
9420;SDS011;4749;51.398;5.466;2023-03-04T08:14:02;6.10;;;1.40;;
9420;SDS011;4749;51.398;5.466;2023-03-04T08:16:30;6.03;;;1.50;;
9420;SDS011;4749;51.398;5.466;2023-03-04T08:18:59;6.63;;;1.50;;
9420;SDS011;4749;51.398;5.466;2023-03-04T08:21:28;6.67;;;1.90;;
9420;SDS011;4749;51.398;5.466;2023-03-04T08:23:59;9.73;;;1.47;;
9420;SDS011;4749;51.398;5.466;2023-03-04T08:26:30;6.33;;;1.90;;
9420;SDS011;4749;51.398;5.466;2023-03-04T08:29:06;7.17;;;1.60;;
9420;SDS011;4749;51.398;5.466;2023-03-04T08:31:37;6.77;;;1.73;;
9420;SDS011;4749;51.398;5.466;2023-03-04T08:34:05;5.90;;;1.77;;
9420;SDS011;4749;51.398;5.466;2023-03-04T08:36:35;9.37;;;1.90;;
9420;SDS011;4749;51.398;5.466;2023-03-04T08:39:03;9.37;;;1.60;;
9420;SDS011;4749;51.398;5.466;2023-03-04T08:41:31;5.17;;;1.80;;
9420;SDS011;4749;51.398;5.466;2023-03-04T08:43:59;7.63;;;2.07;;
9420;SDS011;4749;51.398;5.466;2023-03-04T08:46:27;5.70;;;1.90;;
9420;SDS011;4749;51.398;5.466;2023-03-04T08:48:55;7.40;;;2.13;;
9420;SDS011;4749;51.398;5.466;2023-03-04T08:51:22;6.73;;;1.67;;
9420;SDS011;4749;51.398;5.466;2023-03-04T08:53:50;7.73;;;1.93;;
9420;SDS011;4749;51.398;5.466;2023-03-04T08:56:18;6.60;;;1.77;;
9420;SDS011;4749;51.398;5.466;2023-03-04T08:58:45;5.47;;;2.17;;
9420;SDS011;4749;51.398;5.466;2023-03-04T09:01:13;7.97;;;1.70;;
9420;SDS011;4749;51.398;5.466;2023-03-04T09:03:41;7.13;;;1.48;;
9420;SDS011;4749;51.398;5.466;2023-03-04T09:06:09;3.97;;;1.50;;
9420;SDS011;4749;51.398;5.466;2023-03-04T09:08:42;3.37;;;1.50;;
9420;SDS011;4749;51.398;5.466;2023-03-04T09:11:10;6.28;;;1.90;;
9420;SDS011;4749;51.398;5.466;2023-03-04T09:13:39;7.40;;;1.57;;
9420;SDS011;4749;51.398;5.466;2023-03-04T09:16:10;7.10;;;1.83;;
9420;SDS011;4749;51.398;5.466;2023-03-04T09:18:39;3.20;;;1.08;;
9420;SDS011;4749;51.398;5.466;2023-03-04T09:21:08;8.23;;;1.60;;
9420;SDS011;4749;51.398;5.466;2023-03-04T09:23:37;4.60;;;1.30;;
9420;SDS011;4749;51.398;5.466;2023-03-04T09:28:53;6.68;;;1.75;;
9420;SDS011;4749;51.398;5.466;2023-03-04T09:31:24;10.38;;;1.90;;
9420;SDS011;4749;51.398;5.466;2023-03-04T09:33:52;2.72;;;1.13;;
9420;SDS011;4749;51.398;5.466;2023-03-04T09:36:21;3.05;;;1.13;;
9420;SDS011;4749;51.398;5.466;2023-03-04T09:38:49;3.70;;;1.55;;
9420;SDS011;4749;51.398;5.466;2023-03-04T09:41:23;5.22;;;1.65;;
9420;SDS011;4749;51.398;5.466;2023-03-04T09:43:54;5.65;;;1.55;;
9420;SDS011;4749;51.398;5.466;2023-03-04T09:46:33;5.90;;;1.60;;
9420;SDS011;4749;51.398;5.466;2023-03-04T09:49:05;4.47;;;1.42;;
9420;SDS011;4749;51.398;5.466;2023-03-04T09:51:53;3.13;;;1.30;;
9420;SDS011;4749;51.398;5.466;2023-03-04T09:54:29;3.55;;;1.50;;
9420;SDS011;4749;51.398;5.466;2023-03-04T09:57:41;3.75;;;1.30;;
9420;SDS011;4749;51.398;5.466;2023-03-04T10:06:09;6.03;;;1.98;;
9420;SDS011;4749;51.398;5.466;2023-03-04T10:11:41;4.13;;;1.38;;
9420;SDS011;4749;51.398;5.466;2023-03-04T10:16:54;4.93;;;1.40;;
9420;SDS011;4749;51.398;5.466;2023-03-04T10:24:58;4.32;;;1.25;;
9420;SDS011;4749;51.398;5.466;2023-03-04T10:27:54;5.35;;;1.05;;
9420;SDS011;4749;51.398;5.466;2023-03-04T10:33:28;2.83;;;1.20;;
9420;SDS011;4749;51.398;5.466;2023-03-04T10:36:03;3.38;;;1.05;;
9420;SDS011;4749;51.398;5.466;2023-03-04T10:39:02;2.90;;;1.05;;
9420;SDS011;4749;51.398;5.466;2023-03-04T10:41:42;3.70;;;0.90;;
9420;SDS011;4749;51.398;5.466;2023-03-04T10:44:18;3.83;;;1.10;;
9420;SDS011;4749;51.398;5.466;2023-03-04T10:46:46;5.03;;;1.38;;
9420;SDS011;4749;51.398;5.466;2023-03-04T10:49:16;2.60;;;1.20;;
9420;SDS011;4749;51.398;5.466;2023-03-04T10:54:51;2.78;;;1.15;;
9420;SDS011;4749;51.398;5.466;2023-03-04T10:57:32;3.97;;;0.93;;
9420;SDS011;4749;51.398;5.466;2023-03-04T11:00:19;2.58;;;1.15;;
9420;SDS011;4749;51.398;5.466;2023-03-04T11:06:06;2.15;;;1.20;;
9420;SDS011;4749;51.398;5.466;2023-03-04T11:08:53;4.55;;;1.10;;
9420;SDS011;4749;51.398;5.466;2023-03-04T11:14:17;3.17;;;1.02;;
9420;SDS011;4749;51.398;5.466;2023-03-04T11:16:58;3.05;;;1.30;;
9420;SDS011;4749;51.398;5.466;2023-03-04T11:19:38;3.72;;;1.08;;
9420;SDS011;4749;51.398;5.466;2023-03-04T11:22:08;3.47;;;1.03;;
9420;SDS011;4749;51.398;5.466;2023-03-04T11:24:41;4.18;;;1.20;;
9420;SDS011;4749;51.398;5.466;2023-03-04T11:30:25;5.87;;;0.90;;
9420;SDS011;4749;51.398;5.466;2023-03-04T11:33:05;7.00;;;1.47;;
9420;SDS011;4749;51.398;5.466;2023-03-04T11:38:46;3.03;;;0.93;;
9420;SDS011;4749;51.398;5.466;2023-03-04T11:41:19;5.10;;;1.10;;
9420;SDS011;4749;51.398;5.466;2023-03-04T11:44:12;2.47;;;1.30;;
9420;SDS011;4749;51.398;5.466;2023-03-04T12:04:06;3.60;;;1.70;;
9420;SDS011;4749;51.398;5.466;2023-03-04T12:09:47;3.33;;;1.77;;
9420;SDS011;4749;51.398;5.466;2023-03-04T12:15:19;2.78;;;1.40;;
9420;SDS011;4749;51.398;5.466;2023-03-04T12:32:33;2.83;;;1.55;;
9420;SDS011;4749;51.398;5.466;2023-03-04T12:35:13;2.65;;;1.30;;
9420;SDS011;4749;51.398;5.466;2023-03-04T12:40:54;1.00;;;0.90;;
9420;SDS011;4749;51.398;5.466;2023-03-04T12:44:11;1.92;;;1.13;;
9420;SDS011;4749;51.398;5.466;2023-03-04T12:52:56;1.75;;;1.10;;
9420;SDS011;4749;51.398;5.466;2023-03-04T12:55:48;2.38;;;1.02;;
9420;SDS011;4749;51.398;5.466;2023-03-04T12:58:34;2.00;;;1.20;;
9420;SDS011;4749;51.398;5.466;2023-03-04T13:01:05;2.03;;;0.93;;
9420;SDS011;4749;51.398;5.466;2023-03-04T13:06:44;1.80;;;1.08;;
9420;SDS011;4749;51.398;5.466;2023-03-04T13:09:27;4.07;;;1.40;;
9420;SDS011;4749;51.398;5.466;2023-03-04T13:12:02;4.13;;;1.42;;
9420;SDS011;4749;51.398;5.466;2023-03-04T13:23:02;2.45;;;1.35;;
9420;SDS011;4749;51.398;5.466;2023-03-04T13:25:40;3.42;;;1.42;;
9420;SDS011;4749;51.398;5.466;2023-03-04T13:28:26;1.95;;;1.38;;
9420;SDS011;4749;51.398;5.466;2023-03-04T13:43:41;4.93;;;1.50;;
9420;SDS011;4749;51.398;5.466;2023-03-04T13:51:16;8.07;;;2.70;;
9420;SDS011;4749;51.398;5.466;2023-03-04T13:54:05;2.88;;;1.50;;
9420;SDS011;4749;51.398;5.466;2023-03-04T13:56:43;3.63;;;1.83;;
9420;SDS011;4749;51.398;5.466;2023-03-04T14:02:21;6.50;;;2.10;;
9420;SDS011;4749;51.398;5.466;2023-03-04T14:10:03;4.70;;;2.33;;
9420;SDS011;4749;51.398;5.466;2023-03-04T14:12:54;5.30;;;2.33;;
9420;SDS011;4749;51.398;5.466;2023-03-04T14:15:24;3.83;;;2.60;;
9420;SDS011;4749;51.398;5.466;2023-03-04T14:17:57;3.30;;;2.50;;
9420;SDS011;4749;51.398;5.466;2023-03-04T14:20:31;3.00;;;2.63;;
9420;SDS011;4749;51.398;5.466;2023-03-04T14:26:04;7.47;;;3.00;;
9420;SDS011;4749;51.398;5.466;2023-03-04T14:28:32;3.17;;;2.73;;
9420;SDS011;4749;51.398;5.466;2023-03-04T14:31:10;3.73;;;2.73;;
9420;SDS011;4749;51.398;5.466;2023-03-04T14:33:47;4.47;;;2.30;;
9420;SDS011;4749;51.398;5.466;2023-03-04T14:36:20;3.57;;;2.47;;
9420;SDS011;4749;51.398;5.466;2023-03-04T14:38:53;5.13;;;2.57;;
9420;SDS011;4749;51.398;5.466;2023-03-04T14:41:29;3.40;;;2.23;;
9420;SDS011;4749;51.398;5.466;2023-03-04T14:44:06;3.50;;;2.20;;
9420;SDS011;4749;51.398;5.466;2023-03-04T14:46:58;3.73;;;2.17;;
9420;SDS011;4749;51.398;5.466;2023-03-04T14:49:43;3.63;;;2.13;;
9420;SDS011;4749;51.398;5.466;2023-03-04T14:55:21;4.30;;;1.70;;
9420;SDS011;4749;51.398;5.466;2023-03-04T14:58:04;3.67;;;1.70;;
9420;SDS011;4749;51.398;5.466;2023-03-04T15:00:35;2.45;;;2.03;;
9420;SDS011;4749;51.398;5.466;2023-03-04T15:03:14;2.47;;;1.83;;
9420;SDS011;4749;51.398;5.466;2023-03-04T15:05:51;3.75;;;1.80;;
9420;SDS011;4749;51.398;5.466;2023-03-04T15:08:21;2.63;;;1.83;;
9420;SDS011;4749;51.398;5.466;2023-03-04T15:11:02;5.47;;;1.48;;
9420;SDS011;4749;51.398;5.466;2023-03-04T15:13:38;3.13;;;1.37;;
9420;SDS011;4749;51.398;5.466;2023-03-04T15:16:12;1.90;;;1.00;;
9420;SDS011;4749;51.398;5.466;2023-03-04T15:18:57;1.73;;;0.83;;
9420;SDS011;4749;51.398;5.466;2023-03-04T15:21:32;1.58;;;0.80;;
9420;SDS011;4749;51.398;5.466;2023-03-04T15:24:09;3.15;;;0.80;;
9420;SDS011;4749;51.398;5.466;2023-03-04T15:26:39;6.13;;;1.00;;
9420;SDS011;4749;51.398;5.466;2023-03-04T15:29:16;3.72;;;1.13;;
9420;SDS011;4749;51.398;5.466;2023-03-04T15:31:45;5.35;;;1.40;;
9420;SDS011;4749;51.398;5.466;2023-03-04T15:34:18;4.05;;;1.10;;
9420;SDS011;4749;51.398;5.466;2023-03-04T15:36:47;3.17;;;1.20;;
9420;SDS011;4749;51.398;5.466;2023-03-04T15:39:16;3.47;;;1.30;;
9420;SDS011;4749;51.398;5.466;2023-03-04T15:41:45;7.22;;;1.13;;
9420;SDS011;4749;51.398;5.466;2023-03-04T15:44:13;5.15;;;1.65;;
9420;SDS011;4749;51.398;5.466;2023-03-04T15:46:41;4.63;;;1.50;;
9420;SDS011;4749;51.398;5.466;2023-03-04T15:49:08;4.25;;;1.13;;
9420;SDS011;4749;51.398;5.466;2023-03-04T15:51:35;4.10;;;1.40;;
9420;SDS011;4749;51.398;5.466;2023-03-04T15:54:03;6.10;;;1.65;;
9420;SDS011;4749;51.398;5.466;2023-03-04T15:56:33;6.33;;;1.60;;
9420;SDS011;4749;51.398;5.466;2023-03-04T15:59:05;4.25;;;1.60;;
9420;SDS011;4749;51.398;5.466;2023-03-04T16:01:41;5.45;;;1.63;;
9420;SDS011;4749;51.398;5.466;2023-03-04T16:04:13;6.20;;;2.17;;
9420;SDS011;4749;51.398;5.466;2023-03-04T16:06:43;8.07;;;2.22;;
9420;SDS011;4749;51.398;5.466;2023-03-04T16:09:12;11.17;;;1.97;;
9420;SDS011;4749;51.398;5.466;2023-03-04T16:11:43;12.90;;;2.10;;
9420;SDS011;4749;51.398;5.466;2023-03-04T16:14:13;9.23;;;2.20;;
9420;SDS011;4749;51.398;5.466;2023-03-04T16:16:41;12.87;;;2.07;;
9420;SDS011;4749;51.398;5.466;2023-03-04T16:19:12;10.93;;;1.97;;
9420;SDS011;4749;51.398;5.466;2023-03-04T16:21:39;9.97;;;2.87;;
9420;SDS011;4749;51.398;5.466;2023-03-04T16:24:09;11.87;;;2.20;;
9420;SDS011;4749;51.398;5.466;2023-03-04T16:26:45;9.47;;;1.97;;
9420;SDS011;4749;51.398;5.466;2023-03-04T16:29:14;9.07;;;2.63;;
9420;SDS011;4749;51.398;5.466;2023-03-04T16:31:41;9.67;;;3.17;;
9420;SDS011;4749;51.398;5.466;2023-03-04T16:34:09;10.13;;;2.40;;
9420;SDS011;4749;51.398;5.466;2023-03-04T16:36:36;7.20;;;2.30;;
9420;SDS011;4749;51.398;5.466;2023-03-04T16:39:05;10.37;;;2.73;;
9420;SDS011;4749;51.398;5.466;2023-03-04T16:41:42;9.37;;;2.00;;
9420;SDS011;4749;51.398;5.466;2023-03-04T16:44:09;13.63;;;2.87;;
9420;SDS011;4749;51.398;5.466;2023-03-04T16:46:46;7.67;;;1.90;;
9420;SDS011;4749;51.398;5.466;2023-03-04T16:49:23;9.13;;;2.43;;
9420;SDS011;4749;51.398;5.466;2023-03-04T16:51:50;9.77;;;2.03;;
9420;SDS011;4749;51.398;5.466;2023-03-04T16:54:21;6.43;;;1.67;;
9420;SDS011;4749;51.398;5.466;2023-03-04T16:56:56;8.93;;;2.00;;
9420;SDS011;4749;51.398;5.466;2023-03-04T16:59:25;6.57;;;1.70;;
9420;SDS011;4749;51.398;5.466;2023-03-04T17:01:53;5.93;;;1.70;;
9420;SDS011;4749;51.398;5.466;2023-03-04T17:04:23;6.87;;;1.87;;
9420;SDS011;4749;51.398;5.466;2023-03-04T17:06:50;8.80;;;1.93;;
9420;SDS011;4749;51.398;5.466;2023-03-04T17:09:18;8.10;;;1.90;;
9420;SDS011;4749;51.398;5.466;2023-03-04T17:11:45;10.13;;;2.80;;
9420;SDS011;4749;51.398;5.466;2023-03-04T17:14:12;7.83;;;2.47;;
9420;SDS011;4749;51.398;5.466;2023-03-04T17:16:40;7.37;;;2.43;;
9420;SDS011;4749;51.398;5.466;2023-03-04T17:19:07;7.50;;;1.97;;
9420;SDS011;4749;51.398;5.466;2023-03-04T17:21:34;4.67;;;1.43;;
9420;SDS011;4749;51.398;5.466;2023-03-04T17:24:01;7.23;;;2.00;;
9420;SDS011;4749;51.398;5.466;2023-03-04T17:26:29;5.03;;;1.93;;
9420;SDS011;4749;51.398;5.466;2023-03-04T17:28:57;7.53;;;1.83;;
9420;SDS011;4749;51.398;5.466;2023-03-04T17:31:24;6.90;;;1.80;;
9420;SDS011;4749;51.398;5.466;2023-03-04T17:33:52;4.97;;;1.80;;
9420;SDS011;4749;51.398;5.466;2023-03-04T17:36:19;9.43;;;2.90;;
9420;SDS011;4749;51.398;5.466;2023-03-04T17:38:47;8.67;;;2.53;;
9420;SDS011;4749;51.398;5.466;2023-03-04T17:41:14;10.80;;;2.53;;
9420;SDS011;4749;51.398;5.466;2023-03-04T17:43:48;10.57;;;2.50;;
9420;SDS011;4749;51.398;5.466;2023-03-04T17:46:18;9.07;;;2.73;;